createdAt,value
2023-05-05T00:00:56.181Z,60.29
2023-05-05T00:03:23.288Z,59.82
2023-05-05T00:05:50.702Z,60.76
2023-05-05T00:08:18.042Z,60.42
2023-05-05T00:10:48.030Z,60.18
2023-05-05T00:13:14.745Z,59.96
2023-05-05T00:15:42.449Z,60.14
2023-05-05T00:18:09.165Z,60.00
2023-05-05T00:20:35.856Z,59.65
2023-05-05T00:23:02.736Z,60.78
2023-05-05T00:25:29.389Z,60.50
2023-05-05T00:27:56.180Z,61.22
2023-05-05T00:30:22.925Z,61.89
2023-05-05T00:32:49.678Z,62.38
2023-05-05T00:35:16.547Z,61.83
2023-05-05T00:37:43.482Z,61.63
2023-05-05T00:40:10.519Z,61.84
2023-05-05T00:42:40.262Z,61.64
2023-05-05T00:45:06.883Z,62.02
2023-05-05T00:47:33.412Z,61.89
2023-05-05T00:49:59.863Z,61.93
2023-05-05T00:52:26.523Z,62.23
2023-05-05T00:54:53.635Z,60.90
2023-05-05T00:57:20.521Z,63.37
2023-05-05T00:59:48.684Z,62.90
2023-05-05T01:02:15.142Z,63.83
2023-05-05T01:04:41.524Z,63.12
2023-05-05T01:07:13.893Z,62.38
2023-05-05T01:09:43.326Z,62.36
2023-05-05T01:12:36.159Z,61.55
2023-05-05T01:15:05.412Z,60.96
2023-05-05T01:17:45.894Z,61.03
2023-05-05T01:20:23.929Z,61.60
2023-05-05T01:22:59.696Z,61.10
2023-05-05T01:25:44.827Z,61.88
2023-05-05T01:28:24.155Z,61.18
2023-05-05T01:31:00.133Z,60.87
2023-05-05T01:33:28.906Z,61.58
2023-05-05T01:35:57.426Z,61.19
2023-05-05T01:38:32.423Z,61.79
2023-05-05T01:41:19.263Z,61.08
2023-05-05T01:43:47.142Z,62.15
2023-05-05T01:46:15.166Z,62.60
2023-05-05T01:48:42.629Z,61.99
2023-05-05T01:51:10.488Z,63.44
2023-05-05T01:53:37.569Z,64.03
2023-05-05T01:56:04.456Z,63.44
2023-05-05T01:58:32.849Z,64.32
2023-05-05T02:01:00.421Z,64.86
2023-05-05T02:03:27.638Z,64.35
2023-05-05T02:05:55.310Z,64.24
2023-05-05T02:08:22.315Z,64.46
2023-05-05T02:10:49.860Z,64.73
2023-05-05T02:13:18.220Z,67.00
2023-05-05T02:15:44.955Z,68.33
2023-05-05T02:18:11.620Z,67.72
2023-05-05T02:20:39.557Z,68.15
2023-05-05T02:23:07.986Z,68.01
2023-05-05T02:25:43.287Z,68.98
2023-05-05T02:28:13.137Z,69.49
2023-05-05T02:30:40.464Z,68.43
2023-05-05T02:33:09.245Z,67.88
2023-05-05T02:35:37.899Z,68.21
2023-05-05T02:38:05.656Z,67.84
2023-05-05T02:40:33.932Z,69.35
2023-05-05T02:43:03.643Z,69.11
2023-05-05T02:45:30.216Z,68.79
2023-05-05T02:47:56.766Z,68.41
2023-05-05T02:50:23.252Z,68.90
2023-05-05T02:52:49.668Z,69.38
2023-05-05T02:55:16.577Z,68.89
2023-05-05T02:57:42.976Z,68.54
2023-05-05T03:00:09.778Z,67.42
2023-05-05T03:02:43.413Z,67.37
2023-05-05T03:05:11.223Z,66.74
2023-05-05T03:07:52.999Z,66.40
2023-05-05T03:10:21.326Z,65.72
2023-05-05T03:12:55.350Z,64.55
2023-05-05T03:15:32.156Z,64.91
2023-05-05T03:17:59.664Z,64.10
2023-05-05T03:20:26.298Z,64.85
2023-05-05T03:22:52.919Z,64.22
2023-05-05T03:25:19.405Z,64.10
2023-05-05T03:27:45.843Z,64.27
2023-05-05T03:30:12.502Z,64.93
2023-05-05T03:32:38.965Z,65.79
2023-05-05T03:35:05.644Z,65.92
2023-05-05T03:37:32.088Z,66.10
2023-05-05T03:39:58.541Z,64.79
2023-05-05T03:42:25.185Z,65.70
2023-05-05T03:44:53.842Z,65.18
2023-05-05T03:47:20.424Z,64.62
2023-05-05T03:49:46.802Z,65.30
2023-05-05T03:52:14.936Z,66.17
2023-05-05T03:54:42.554Z,66.55
2023-05-05T03:57:08.996Z,67.51
2023-05-05T03:59:35.426Z,66.88
2023-05-05T04:02:01.833Z,68.10
2023-05-05T04:04:28.371Z,67.88
2023-05-05T04:06:54.940Z,68.51
2023-05-05T04:09:21.371Z,69.13
2023-05-05T04:11:47.829Z,68.44
2023-05-05T04:14:14.258Z,69.00
2023-05-05T04:16:40.778Z,69.39
2023-05-05T04:19:08.381Z,68.87
2023-05-05T04:21:35.311Z,69.22
2023-05-05T04:24:01.732Z,68.94
2023-05-05T04:26:28.200Z,69.43
2023-05-05T04:28:56.443Z,69.18
2023-05-05T04:31:22.909Z,69.85
2023-05-05T04:33:49.333Z,69.31
2023-05-05T04:36:15.875Z,69.50
2023-05-05T04:38:42.313Z,70.57
2023-05-05T04:41:08.702Z,70.59
2023-05-05T04:43:35.123Z,70.58
2023-05-05T04:46:01.899Z,71.00
2023-05-05T04:48:28.364Z,71.06
2023-05-05T04:50:54.847Z,70.39
2023-05-05T04:53:21.283Z,70.44
2023-05-05T04:55:47.800Z,70.02
2023-05-05T04:58:14.210Z,69.96
2023-05-05T05:00:40.751Z,69.75
2023-05-05T05:03:08.259Z,69.18
2023-05-05T05:05:34.770Z,69.36
2023-05-05T05:08:01.208Z,68.59
2023-05-05T05:10:28.461Z,68.78
2023-05-05T05:12:54.900Z,68.42
2023-05-05T05:15:21.496Z,68.17
2023-05-05T05:17:47.943Z,67.68
2023-05-05T05:20:14.425Z,67.78
2023-05-05T05:22:42.193Z,67.59
2023-05-05T05:25:08.813Z,67.41
2023-05-05T05:27:35.239Z,67.04
2023-05-05T05:30:01.982Z,66.62
2023-05-05T05:32:29.044Z,66.41
2023-05-05T05:34:55.630Z,66.69
2023-05-05T05:37:22.072Z,65.42
2023-05-05T05:39:52.230Z,66.01
2023-05-05T05:42:18.842Z,65.97
2023-05-05T05:44:45.327Z,65.21
2023-05-05T05:47:11.759Z,63.99
2023-05-05T05:49:38.167Z,63.36
2023-05-05T05:52:04.682Z,63.39
2023-05-05T05:54:32.725Z,63.53
2023-05-05T05:56:59.141Z,62.29
2023-05-05T05:59:25.694Z,61.84
2023-05-05T06:01:52.083Z,61.74
2023-05-05T06:04:18.589Z,61.98
2023-05-05T06:06:45.074Z,60.64
2023-05-05T06:09:11.615Z,61.43
2023-05-05T06:11:38.058Z,60.56
2023-05-05T06:14:04.612Z,60.63
2023-05-05T06:16:31.146Z,60.33
2023-05-05T06:18:57.624Z,60.02
2023-05-05T06:21:24.155Z,59.41
2023-05-05T06:23:50.934Z,58.78
2023-05-05T06:26:17.458Z,58.49
2023-05-05T06:28:43.956Z,58.32
2023-05-05T06:31:12.824Z,55.55
2023-05-05T06:33:39.304Z,57.12
2023-05-05T06:36:05.871Z,57.28
2023-05-05T06:38:32.368Z,56.96
2023-05-05T06:40:58.782Z,56.51
2023-05-05T06:43:25.342Z,55.50
2023-05-05T06:45:52.052Z,55.59
2023-05-05T06:48:18.653Z,54.86
2023-05-05T06:50:45.166Z,56.31
2023-05-05T06:53:11.579Z,54.54
2023-05-05T06:55:38.037Z,55.81
2023-05-05T06:58:04.482Z,55.22
2023-05-05T07:00:30.960Z,54.31
2023-05-05T07:02:57.464Z,54.05
2023-05-05T07:05:24.097Z,53.28
2023-05-05T07:07:53.960Z,53.61
2023-05-05T07:10:21.479Z,54.07
2023-05-05T07:12:48.163Z,54.45
2023-05-05T07:15:26.763Z,54.29
2023-05-05T07:17:54.963Z,55.21
2023-05-05T07:20:21.448Z,55.15
2023-05-05T07:22:47.970Z,52.47
2023-05-05T07:25:14.377Z,52.69
2023-05-05T07:27:40.782Z,52.71
2023-05-05T07:30:12.420Z,53.63
2023-05-05T07:32:41.275Z,51.16
2023-05-05T07:35:07.837Z,52.00
2023-05-05T07:37:34.324Z,51.75
2023-05-05T07:40:00.988Z,52.75
2023-05-05T07:42:27.464Z,52.68
2023-05-05T07:44:53.928Z,49.94
2023-05-05T07:47:20.926Z,51.09
2023-05-05T07:49:47.358Z,48.64
2023-05-05T07:52:14.036Z,51.64
2023-05-05T07:54:41.287Z,51.51
2023-05-05T07:57:07.858Z,49.89
2023-05-05T07:59:34.735Z,49.46
2023-05-05T08:02:01.525Z,50.44
2023-05-05T08:04:28.035Z,49.64
2023-05-05T08:06:54.520Z,48.28
2023-05-05T08:09:20.969Z,47.45
2023-05-05T08:11:47.441Z,49.61
2023-05-05T08:14:15.148Z,47.94
2023-05-05T08:16:41.745Z,46.76
2023-05-05T08:19:17.860Z,47.06
2023-05-05T08:21:51.775Z,48.30
2023-05-05T08:24:18.448Z,46.96
2023-05-05T08:26:44.881Z,47.54
2023-05-05T08:29:11.435Z,48.01
2023-05-05T08:31:38.098Z,47.88
2023-05-05T08:36:39.756Z,47.75
2023-05-05T08:39:07.128Z,46.85
2023-05-05T08:41:33.938Z,46.57
2023-05-05T08:44:00.745Z,46.13
2023-05-05T08:46:28.178Z,47.34
2023-05-05T08:48:55.464Z,46.91
2023-05-05T08:51:22.077Z,47.24
2023-05-05T08:53:54.748Z,45.45
2023-05-05T08:56:24.455Z,46.47
2023-05-05T08:58:51.376Z,44.59
2023-05-05T09:01:18.304Z,44.58
2023-05-05T09:03:46.195Z,45.87
2023-05-05T09:06:12.832Z,45.85
2023-05-05T09:08:39.596Z,45.84
2023-05-05T09:11:06.246Z,43.30
2023-05-05T09:13:32.712Z,45.38
2023-05-05T09:15:59.685Z,44.03
2023-05-05T09:18:26.298Z,43.76
2023-05-05T09:20:52.739Z,44.27
2023-05-05T09:23:20.203Z,42.79
2023-05-05T09:25:47.554Z,41.93
2023-05-05T09:28:15.019Z,43.10
2023-05-05T09:30:42.352Z,43.28
2023-05-05T09:33:09.325Z,43.91
2023-05-05T09:35:52.258Z,43.90
2023-05-05T09:38:19.234Z,43.30
2023-05-05T09:40:47.458Z,42.77
2023-05-05T09:43:14.059Z,43.89
2023-05-05T09:45:40.482Z,43.05
2023-05-05T09:48:07.051Z,42.61
2023-05-05T09:50:44.083Z,40.75
2023-05-05T09:53:10.936Z,41.89
2023-05-05T09:55:38.126Z,43.41
2023-05-05T09:58:17.455Z,42.54
2023-05-05T10:00:43.933Z,42.75
2023-05-05T10:03:10.674Z,41.97
2023-05-05T10:05:57.475Z,43.00
2023-05-05T10:08:25.901Z,43.12
2023-05-05T10:10:56.436Z,41.64
2023-05-05T10:13:23.876Z,42.18
2023-05-05T10:15:51.828Z,39.46
2023-05-05T10:18:20.470Z,38.33
2023-05-05T10:20:48.380Z,39.19
2023-05-05T10:23:18.766Z,41.75
2023-05-05T10:25:55.737Z,40.74
2023-05-05T10:28:51.676Z,41.50
2023-05-05T10:31:26.592Z,40.61
2023-05-05T10:33:55.282Z,37.22
2023-05-05T10:36:23.440Z,39.11
2023-05-05T10:38:50.816Z,39.25
2023-05-05T10:41:18.483Z,39.25
2023-05-05T10:43:45.990Z,39.45
2023-05-05T10:46:12.840Z,39.34
2023-05-05T10:48:42.656Z,40.45
2023-05-05T10:51:14.152Z,39.66
2023-05-05T10:53:54.113Z,40.48
2023-05-05T10:56:28.335Z,37.93
2023-05-05T10:59:00.113Z,38.49
2023-05-05T11:01:37.086Z,39.76
2023-05-05T11:04:22.754Z,36.58
2023-05-05T11:07:07.855Z,38.54
2023-05-05T11:09:41.990Z,37.47
2023-05-05T11:12:08.773Z,37.77
2023-05-05T11:14:35.483Z,36.35
2023-05-05T11:17:02.072Z,37.97
2023-05-05T11:19:44.300Z,37.61
2023-05-05T11:22:13.617Z,39.28
2023-05-05T11:24:40.682Z,38.94
2023-05-05T11:27:07.132Z,37.54
2023-05-05T11:29:53.084Z,37.51
2023-05-05T11:32:20.024Z,35.33
2023-05-05T11:34:50.103Z,36.11
2023-05-05T11:37:17.199Z,36.74
2023-05-05T11:40:07.229Z,38.00
2023-05-05T11:42:33.977Z,38.14
2023-05-05T11:45:00.626Z,35.67
2023-05-05T11:47:28.233Z,36.66
2023-05-05T11:49:55.652Z,37.39
2023-05-05T11:52:24.022Z,37.49
2023-05-05T11:54:50.887Z,36.11
2023-05-05T11:57:21.110Z,36.15
2023-05-05T12:02:36.902Z,36.05
2023-05-05T12:07:38.870Z,36.40
2023-05-05T12:10:06.966Z,35.39
2023-05-05T12:12:35.222Z,35.46
2023-05-05T12:15:01.731Z,36.12
2023-05-05T12:17:35.829Z,36.87
2023-05-05T12:20:02.333Z,35.50
2023-05-05T12:22:28.749Z,35.31
2023-05-05T12:24:56.276Z,35.60
2023-05-05T12:27:23.600Z,35.53
2023-05-05T12:29:51.808Z,35.02
2023-05-05T12:32:23.063Z,35.97
2023-05-05T12:34:50.987Z,35.28
2023-05-05T12:37:19.339Z,35.87
2023-05-05T12:39:46.026Z,35.98
2023-05-05T12:42:12.529Z,33.87
2023-05-05T12:44:39.854Z,33.03
2023-05-05T12:47:06.988Z,34.56
2023-05-05T12:49:49.529Z,33.80
2023-05-05T12:52:16.493Z,33.24
2023-05-05T12:54:55.936Z,32.25
2023-05-05T12:57:22.586Z,32.77
2023-05-05T12:59:49.440Z,34.14
2023-05-05T13:02:16.474Z,33.92
2023-05-05T13:04:53.121Z,35.07
2023-05-05T13:07:20.501Z,34.79
2023-05-05T13:09:48.329Z,35.06
2023-05-05T13:12:15.529Z,32.85
2023-05-05T13:14:42.380Z,33.03
2023-05-05T13:17:09.223Z,34.01
2023-05-05T13:19:41.629Z,35.08
2023-05-05T13:22:10.329Z,33.90
2023-05-05T13:24:49.924Z,35.34
2023-05-05T13:27:19.033Z,35.03
2023-05-05T13:29:46.049Z,33.91
2023-05-05T13:32:12.561Z,33.39
2023-05-05T13:34:39.340Z,31.69
2023-05-05T13:37:06.232Z,30.80
2023-05-05T13:39:32.808Z,32.02
2023-05-05T13:41:59.272Z,33.09
2023-05-05T13:44:25.679Z,31.73
2023-05-05T13:46:52.192Z,33.23
2023-05-05T13:49:18.703Z,32.19
2023-05-05T13:51:47.181Z,33.26
2023-05-05T13:54:13.867Z,31.97
2023-05-05T13:56:40.955Z,32.11
2023-05-05T13:59:07.689Z,33.83
2023-05-05T14:01:34.208Z,33.83
2023-05-05T14:04:03.646Z,31.36
2023-05-05T14:06:32.507Z,33.02
2023-05-05T14:08:58.988Z,34.72
2023-05-05T14:11:25.396Z,33.56
2023-05-05T14:13:52.055Z,33.30
2023-05-05T14:16:18.695Z,34.04
2023-05-05T14:18:45.663Z,33.40
2023-05-05T14:21:12.202Z,32.09
2023-05-05T14:23:38.691Z,33.24
2023-05-05T14:26:05.401Z,34.60
2023-05-05T14:28:31.901Z,34.92
2023-05-05T14:30:58.383Z,34.20
2023-05-05T14:33:24.840Z,33.31
2023-05-05T14:35:51.559Z,34.17
2023-05-05T14:38:18.073Z,33.53
2023-05-05T14:40:44.704Z,34.31
2023-05-05T14:43:11.250Z,32.92
2023-05-05T14:45:37.965Z,33.90
2023-05-05T14:48:04.523Z,32.44
2023-05-05T14:50:30.998Z,33.64
2023-05-05T14:52:57.434Z,34.09
2023-05-05T14:55:25.062Z,33.70
2023-05-05T14:57:51.986Z,32.90
2023-05-05T15:00:18.582Z,34.00
2023-05-05T15:02:45.131Z,34.44
2023-05-05T15:05:11.790Z,34.12
2023-05-05T15:07:38.363Z,34.11
2023-05-05T15:10:05.141Z,34.01
2023-05-05T15:12:31.731Z,34.07
2023-05-05T15:14:58.175Z,33.74
2023-05-05T15:17:24.819Z,33.20
2023-05-05T15:19:51.429Z,33.23
2023-05-05T15:22:17.892Z,32.02
2023-05-05T15:24:44.319Z,33.17
2023-05-05T15:27:10.768Z,32.95
2023-05-05T15:29:37.221Z,31.35
2023-05-05T15:32:03.833Z,33.26
2023-05-05T15:34:31.354Z,32.00
2023-05-05T15:36:57.978Z,32.31
2023-05-05T15:39:24.612Z,32.84
2023-05-05T15:41:51.185Z,32.98
2023-05-05T15:44:17.652Z,33.26
2023-05-05T15:46:45.480Z,33.21
2023-05-05T15:49:12.221Z,33.24
2023-05-05T15:51:38.684Z,33.25
2023-05-05T15:54:05.501Z,33.47
2023-05-05T15:56:32.340Z,33.18
2023-05-05T15:58:58.824Z,32.72
2023-05-05T16:01:25.311Z,33.16
2023-05-05T16:03:51.867Z,33.84
2023-05-05T16:06:18.369Z,33.48
2023-05-05T16:08:47.661Z,33.46
2023-05-05T16:11:14.071Z,33.80
2023-05-05T16:13:40.624Z,33.76
2023-05-05T16:16:07.113Z,33.63
2023-05-05T16:18:33.784Z,33.36
2023-05-05T16:21:00.195Z,33.40
2023-05-05T16:23:26.634Z,33.91
2023-05-05T16:25:53.074Z,33.42
2023-05-05T16:28:19.712Z,34.26
2023-05-05T16:30:46.205Z,33.92
2023-05-05T16:33:12.578Z,33.67
2023-05-05T16:35:38.978Z,33.80
2023-05-05T16:38:05.417Z,34.21
2023-05-05T16:40:31.861Z,34.63
2023-05-05T16:42:58.292Z,35.12
2023-05-05T16:45:24.806Z,34.64
2023-05-05T16:47:51.367Z,35.19
2023-05-05T16:50:17.887Z,35.78
2023-05-05T16:52:44.323Z,35.82
2023-05-05T16:55:10.994Z,36.13
2023-05-05T16:57:37.627Z,36.17
2023-05-05T17:00:05.048Z,35.72
2023-05-05T17:02:31.509Z,36.32
2023-05-05T17:04:58.058Z,36.31
2023-05-05T17:07:24.556Z,36.58
2023-05-05T17:09:51.086Z,36.57
2023-05-05T17:12:17.585Z,36.97
2023-05-05T17:14:45.411Z,37.36
2023-05-05T17:17:11.981Z,37.73
2023-05-05T17:19:38.489Z,38.44
2023-05-05T17:22:04.985Z,38.56
2023-05-05T17:24:31.500Z,38.69
2023-05-05T17:26:58.367Z,40.03
2023-05-05T17:29:24.886Z,40.16
2023-05-05T17:31:51.726Z,40.03
2023-05-05T17:34:18.174Z,40.53
2023-05-05T17:36:44.643Z,41.26
2023-05-05T17:39:11.478Z,42.53
2023-05-05T17:41:37.997Z,41.87
2023-05-05T17:44:04.547Z,42.08
2023-05-05T17:46:30.958Z,41.96
2023-05-05T17:48:57.481Z,42.62
2023-05-05T17:51:23.982Z,43.21
2023-05-05T17:53:50.398Z,44.38
2023-05-05T17:56:17.163Z,45.50
2023-05-05T17:58:43.579Z,46.30
2023-05-05T18:01:13.550Z,46.10
2023-05-05T18:03:41.010Z,46.22
2023-05-05T18:06:07.746Z,45.50
2023-05-05T18:08:34.168Z,46.58
2023-05-05T18:11:01.841Z,49.10
2023-05-05T18:13:28.320Z,50.15
2023-05-05T18:15:54.764Z,50.61
2023-05-05T18:18:21.315Z,49.79
2023-05-05T18:20:47.820Z,50.33
2023-05-05T18:23:14.328Z,50.43
2023-05-05T18:25:41.524Z,51.17
2023-05-05T18:28:07.980Z,50.19
2023-05-05T18:30:35.670Z,49.42
2023-05-05T18:33:02.253Z,50.33
2023-05-05T18:35:29.048Z,49.20
2023-05-05T18:37:55.929Z,50.82
2023-05-05T18:40:22.445Z,51.08
2023-05-05T18:42:48.992Z,51.15
2023-05-05T18:45:15.600Z,51.57
2023-05-05T18:47:42.096Z,51.13
2023-05-05T18:50:09.972Z,51.93
2023-05-05T18:52:36.440Z,50.65
2023-05-05T18:55:03.020Z,50.98
2023-05-05T18:57:29.823Z,51.77
2023-05-05T18:59:56.490Z,51.81
2023-05-05T19:02:23.090Z,52.15
2023-05-05T19:04:49.569Z,51.67
2023-05-05T19:07:27.518Z,52.85
2023-05-05T19:09:58.028Z,51.65
2023-05-05T19:12:24.462Z,52.91
2023-05-05T19:14:50.919Z,51.20
2023-05-05T19:17:17.331Z,52.92
2023-05-05T19:19:43.771Z,53.67
2023-05-05T19:22:10.352Z,52.91
2023-05-05T19:24:36.901Z,53.68
2023-05-05T19:27:03.432Z,52.70
2023-05-05T19:29:32.082Z,52.10
2023-05-05T19:31:58.584Z,50.85
2023-05-05T19:34:25.042Z,53.08
2023-05-05T19:36:51.503Z,53.97
2023-05-05T19:39:17.953Z,51.95
2023-05-05T19:41:44.625Z,53.69
2023-05-05T19:44:11.070Z,52.15
2023-05-05T19:46:37.628Z,53.71
2023-05-05T19:49:04.200Z,53.60
2023-05-05T19:51:31.555Z,54.52
2023-05-05T19:53:59.456Z,52.53
2023-05-05T19:56:26.029Z,54.39
2023-05-05T19:58:52.650Z,53.58
2023-05-05T20:01:19.113Z,53.79
2023-05-05T20:03:46.200Z,53.00
2023-05-05T20:06:12.823Z,56.52
2023-05-05T20:08:39.278Z,56.25
2023-05-05T20:11:05.703Z,56.74
2023-05-05T20:13:34.306Z,57.03
2023-05-05T20:16:01.087Z,58.14
2023-05-05T20:18:27.637Z,57.88
2023-05-05T20:20:54.114Z,56.85
2023-05-05T20:23:20.881Z,58.13
2023-05-05T20:25:47.338Z,58.49
2023-05-05T20:28:13.734Z,57.71
2023-05-05T20:30:40.196Z,57.29
2023-05-05T20:33:06.633Z,56.65
2023-05-05T20:35:33.040Z,58.04
2023-05-05T20:37:59.484Z,58.47
2023-05-05T20:40:26.146Z,57.64
2023-05-05T20:42:52.584Z,57.42
2023-05-05T20:45:19.029Z,56.57
2023-05-05T20:47:45.493Z,55.37
2023-05-05T20:50:12.158Z,58.72
2023-05-05T20:52:38.753Z,58.72
2023-05-05T20:55:05.451Z,57.59
2023-05-05T20:57:31.968Z,58.85
2023-05-05T20:59:58.521Z,58.78
2023-05-05T21:02:25.172Z,58.24
2023-05-05T21:04:51.623Z,58.40
2023-05-05T21:07:18.068Z,59.16
2023-05-05T21:09:47.755Z,59.25
2023-05-05T21:12:14.164Z,59.01
2023-05-05T21:14:44.765Z,59.67
2023-05-05T21:17:11.217Z,59.28
2023-05-05T21:19:37.587Z,60.03
2023-05-05T21:22:04.491Z,60.25
2023-05-05T21:24:31.153Z,59.29
2023-05-05T21:26:57.621Z,61.04
2023-05-05T21:29:26.942Z,59.06
2023-05-05T21:31:53.414Z,60.27
2023-05-05T21:34:20.247Z,58.36
2023-05-05T21:36:46.692Z,60.36
2023-05-05T21:39:13.151Z,60.40
2023-05-05T21:41:39.564Z,59.65
2023-05-05T21:44:05.977Z,60.40
2023-05-05T21:46:32.411Z,59.74
2023-05-05T21:48:58.913Z,60.30
2023-05-05T21:51:25.529Z,61.40
2023-05-05T21:53:51.947Z,60.89
2023-05-05T21:56:18.367Z,61.35
2023-05-05T21:58:44.796Z,61.00
2023-05-05T22:01:11.966Z,61.54
2023-05-05T22:03:38.702Z,61.85
2023-05-05T22:06:05.432Z,61.75
2023-05-05T22:08:31.881Z,61.81
2023-05-05T22:10:58.294Z,62.82
2023-05-05T22:13:24.740Z,62.73
2023-05-05T22:15:51.340Z,62.61
2023-05-05T22:18:17.785Z,63.17
2023-05-05T22:20:44.304Z,63.80
2023-05-05T22:23:10.738Z,63.90
2023-05-05T22:25:37.180Z,64.38
2023-05-05T22:28:03.804Z,64.53
2023-05-05T22:30:30.285Z,64.77
2023-05-05T22:32:56.829Z,64.65
2023-05-05T22:35:23.282Z,64.50
2023-05-05T22:37:49.692Z,64.43
2023-05-05T22:40:16.207Z,64.80
2023-05-05T22:42:42.728Z,64.02
2023-05-05T22:45:09.650Z,64.13
2023-05-05T22:47:36.663Z,64.60
2023-05-05T22:50:03.247Z,64.16
2023-05-05T22:52:29.677Z,63.64
2023-05-05T22:54:56.348Z,64.44
2023-05-05T22:57:22.772Z,64.47
2023-05-05T22:59:49.678Z,63.45
2023-05-05T23:02:16.212Z,62.14
2023-05-05T23:04:45.507Z,62.83
2023-05-05T23:07:12.671Z,61.74
2023-05-05T23:09:39.195Z,63.45
2023-05-05T23:12:05.758Z,64.38
2023-05-05T23:14:32.230Z,63.36
2023-05-05T23:16:58.885Z,64.83
2023-05-05T23:19:25.489Z,66.10
2023-05-05T23:21:53.565Z,66.22
2023-05-05T23:24:20.668Z,66.12
2023-05-05T23:26:47.095Z,65.96
2023-05-05T23:29:13.524Z,65.42
2023-05-05T23:31:39.945Z,65.50
2023-05-05T23:34:06.371Z,64.73
2023-05-05T23:36:32.844Z,65.04
2023-05-05T23:38:59.337Z,64.66
2023-05-05T23:41:25.802Z,64.28
2023-05-05T23:43:52.176Z,64.28
2023-05-05T23:46:18.617Z,63.13
2023-05-05T23:48:45.103Z,64.53
2023-05-05T23:51:11.517Z,64.96
2023-05-05T23:53:37.931Z,64.73
2023-05-05T23:56:04.532Z,65.35
2023-05-05T23:58:31.063Z,65.61
